createdAt,value
2023-02-27T00:00:20.152Z,3.50
2023-02-27T00:02:49.218Z,3.40
2023-02-27T00:05:16.647Z,3.13
2023-02-27T00:07:43.684Z,3.60
2023-02-27T00:10:12.428Z,3.67
2023-02-27T00:12:39.399Z,2.95
2023-02-27T00:15:18.353Z,3.03
2023-02-27T00:17:45.220Z,3.17
2023-02-27T00:20:14.853Z,2.47
2023-02-27T00:22:42.159Z,3.05
2023-02-27T00:25:10.327Z,2.72
2023-02-27T00:27:38.260Z,3.00
2023-02-27T00:30:11.725Z,2.63
2023-02-27T00:32:38.605Z,3.28
2023-02-27T00:35:07.911Z,2.88
2023-02-27T00:37:35.334Z,2.95
2023-02-27T00:40:02.421Z,2.30
2023-02-27T00:42:31.307Z,2.97
2023-02-27T00:44:58.351Z,2.83
2023-02-27T00:47:25.208Z,2.65
2023-02-27T00:49:52.197Z,2.28
2023-02-27T00:52:19.216Z,2.08
2023-02-27T00:54:46.054Z,2.70
2023-02-27T00:57:13.399Z,2.20
2023-02-27T00:59:40.328Z,3.33
2023-02-27T01:02:07.210Z,2.80
2023-02-27T01:04:34.166Z,2.63
2023-02-27T01:07:01.000Z,2.40
2023-02-27T01:09:28.022Z,3.15
2023-02-27T01:11:55.164Z,2.15
2023-02-27T01:14:22.132Z,2.80
2023-02-27T01:16:49.095Z,2.50
2023-02-27T01:19:16.754Z,2.20
2023-02-27T01:21:44.032Z,2.10
2023-02-27T01:24:12.646Z,2.60
2023-02-27T01:26:40.525Z,2.22
2023-02-27T01:29:07.655Z,2.33
2023-02-27T01:31:34.739Z,2.15
2023-02-27T01:34:01.657Z,1.80
2023-02-27T01:36:28.664Z,2.45
2023-02-27T01:38:55.445Z,2.97
2023-02-27T01:41:22.474Z,2.33
2023-02-27T01:44:04.762Z,2.22
2023-02-27T01:46:33.290Z,3.33
2023-02-27T01:49:09.722Z,2.22
2023-02-27T01:52:07.818Z,2.10
2023-02-27T01:54:38.984Z,1.90
2023-02-27T01:57:09.938Z,2.25
2023-02-27T01:59:40.646Z,1.50
2023-02-27T02:02:19.741Z,2.03
2023-02-27T02:04:47.502Z,2.13
2023-02-27T02:07:17.886Z,2.40
2023-02-27T02:09:51.135Z,2.00
2023-02-27T02:12:21.701Z,2.38
2023-02-27T02:14:48.521Z,2.33
2023-02-27T02:17:53.116Z,2.97
2023-02-27T02:21:02.353Z,1.73
2023-02-27T02:24:03.584Z,2.47
2023-02-27T02:26:45.777Z,2.90
2023-02-27T02:29:32.874Z,1.80
2023-02-27T02:32:48.030Z,2.20
2023-02-27T02:35:39.038Z,2.80
2023-02-27T02:38:23.771Z,2.25
2023-02-27T02:41:25.341Z,2.35
2023-02-27T02:46:58.092Z,3.55
2023-02-27T02:49:30.550Z,2.72
2023-02-27T02:52:18.871Z,2.25
2023-02-27T02:55:22.190Z,2.20
2023-02-27T02:58:10.450Z,2.00
2023-02-27T03:00:42.863Z,1.90
2023-02-27T03:03:41.350Z,3.10
2023-02-27T03:06:13.909Z,2.15
2023-02-27T03:08:51.420Z,2.15
2023-02-27T03:11:18.569Z,1.67
2023-02-27T03:14:01.814Z,2.22
2023-02-27T03:16:50.678Z,2.60
2023-02-27T03:19:29.174Z,2.05
2023-02-27T03:22:05.373Z,1.90
2023-02-27T03:25:09.974Z,2.30
2023-02-27T03:27:43.401Z,2.20
2023-02-27T03:30:16.785Z,2.35
2023-02-27T03:33:07.971Z,2.10
2023-02-27T03:35:53.869Z,2.17
2023-02-27T03:38:29.913Z,1.90
2023-02-27T03:41:13.424Z,2.33
2023-02-27T03:44:04.141Z,1.95
2023-02-27T03:46:31.597Z,2.00
2023-02-27T03:48:58.538Z,2.58
2023-02-27T03:51:28.130Z,2.63
2023-02-27T03:54:19.765Z,2.17
2023-02-27T03:57:04.141Z,2.72
2023-02-27T03:59:32.828Z,2.33
2023-02-27T04:02:02.415Z,2.33
2023-02-27T04:04:33.911Z,2.72
2023-02-27T04:09:55.100Z,2.30
2023-02-27T04:12:59.142Z,2.50
2023-02-27T04:15:44.072Z,2.50
2023-02-27T04:18:41.672Z,2.10
2023-02-27T04:21:18.920Z,2.20
2023-02-27T04:24:15.769Z,2.22
2023-02-27T04:27:13.801Z,1.88
2023-02-27T04:29:49.883Z,2.67
2023-02-27T04:32:34.016Z,2.42
2023-02-27T04:35:07.274Z,2.25
2023-02-27T04:38:05.380Z,2.75
2023-02-27T04:40:48.124Z,2.88
2023-02-27T04:43:15.877Z,2.38
2023-02-27T04:45:46.166Z,2.10
2023-02-27T04:48:51.843Z,2.33
2023-02-27T04:51:26.249Z,2.55
2023-02-27T04:54:11.187Z,2.30
2023-02-27T04:57:02.210Z,2.58
2023-02-27T04:59:34.309Z,2.70
2023-02-27T05:02:17.901Z,2.50
2023-02-27T05:04:46.837Z,2.17
2023-02-27T05:07:20.547Z,2.33
2023-02-27T05:09:56.522Z,2.85
2023-02-27T05:12:33.768Z,2.90
2023-02-27T05:15:05.142Z,2.75
2023-02-27T05:20:07.351Z,2.00
2023-02-27T05:22:43.193Z,2.38
2023-02-27T05:25:13.162Z,2.55
2023-02-27T05:27:56.652Z,2.50
2023-02-27T05:30:42.230Z,2.78
2023-02-27T05:33:18.209Z,2.80
2023-02-27T05:35:57.767Z,2.05
2023-02-27T05:38:56.714Z,2.17
2023-02-27T05:41:33.070Z,2.63
2023-02-27T05:44:13.958Z,2.83
2023-02-27T05:46:47.981Z,2.85
2023-02-27T05:49:26.322Z,2.88
2023-02-27T05:51:57.375Z,2.70
2023-02-27T05:54:32.284Z,2.88
2023-02-27T05:57:01.698Z,2.40
2023-02-27T05:59:28.390Z,2.60
2023-02-27T06:01:55.802Z,2.55
2023-02-27T06:04:22.847Z,2.95
2023-02-27T06:06:49.785Z,2.80
2023-02-27T06:09:16.702Z,3.88
2023-02-27T06:11:43.490Z,4.15
2023-02-27T06:14:11.689Z,5.97
2023-02-27T06:16:39.248Z,4.78
2023-02-27T06:19:06.407Z,5.05
2023-02-27T06:21:33.785Z,4.43
2023-02-27T06:24:00.598Z,3.85
2023-02-27T06:26:27.730Z,3.63
2023-02-27T06:28:54.898Z,3.40
2023-02-27T06:31:21.746Z,3.85
2023-02-27T06:33:48.993Z,3.42
2023-02-27T06:36:15.813Z,3.40
2023-02-27T06:38:42.709Z,3.40
2023-02-27T06:41:10.893Z,2.63
2023-02-27T06:43:39.212Z,3.22
2023-02-27T06:46:06.428Z,2.15
2023-02-27T06:48:35.044Z,2.95
2023-02-27T06:51:01.897Z,2.78
2023-02-27T06:53:29.450Z,3.28
2023-02-27T06:55:56.286Z,3.85
2023-02-27T06:58:24.881Z,4.68
2023-02-27T07:00:52.122Z,3.30
2023-02-27T07:03:18.888Z,3.30
2023-02-27T07:05:46.196Z,3.42
2023-02-27T07:08:13.382Z,3.03
2023-02-27T07:10:42.923Z,3.42
2023-02-27T07:13:09.721Z,3.30
2023-02-27T07:15:37.187Z,4.30
2023-02-27T07:18:04.261Z,6.53
2023-02-27T07:20:31.023Z,5.00
2023-02-27T07:22:58.010Z,4.47
2023-02-27T07:25:24.855Z,3.22
2023-02-27T07:27:51.690Z,3.45
2023-02-27T07:30:19.693Z,4.00
2023-02-27T07:32:48.304Z,3.33
2023-02-27T07:35:15.466Z,3.90
2023-02-27T07:37:42.513Z,3.58
2023-02-27T07:40:11.745Z,4.43
2023-02-27T07:42:40.541Z,3.63
2023-02-27T07:45:08.484Z,3.25
2023-02-27T07:47:37.404Z,3.22
2023-02-27T07:50:04.834Z,4.10
2023-02-27T07:52:31.895Z,6.35
2023-02-27T07:54:58.843Z,4.85
2023-02-27T07:57:25.802Z,5.47
2023-02-27T07:59:52.688Z,4.80
2023-02-27T08:02:19.822Z,3.90
2023-02-27T08:04:46.914Z,3.80
2023-02-27T08:07:13.823Z,4.25
2023-02-27T08:09:40.825Z,4.15
2023-02-27T08:12:07.966Z,3.58
2023-02-27T08:14:34.728Z,4.40
2023-02-27T08:17:01.675Z,4.13
2023-02-27T08:19:28.526Z,3.40
2023-02-27T08:21:55.682Z,3.88
2023-02-27T08:24:22.632Z,3.25
2023-02-27T08:26:49.591Z,3.33
2023-02-27T08:29:21.932Z,2.67
2023-02-27T08:31:49.207Z,2.80
2023-02-27T08:34:16.549Z,2.90
2023-02-27T08:36:43.677Z,3.33
2023-02-27T08:39:10.631Z,3.28
2023-02-27T08:41:37.545Z,2.95
2023-02-27T08:44:04.984Z,3.35
2023-02-27T08:46:32.264Z,2.83
2023-02-27T08:48:59.040Z,2.97
2023-02-27T08:51:26.321Z,2.53
2023-02-27T08:53:55.998Z,3.08
2023-02-27T08:56:22.851Z,2.70
2023-02-27T08:58:49.914Z,2.30
2023-02-27T09:01:16.804Z,2.20
2023-02-27T09:03:44.283Z,2.65
2023-02-27T09:06:11.354Z,2.00
2023-02-27T09:08:38.336Z,2.13
2023-02-27T09:11:05.920Z,2.00
2023-02-27T09:13:32.773Z,2.00
2023-02-27T09:15:59.805Z,2.00
2023-02-27T09:18:26.863Z,2.30
2023-02-27T09:20:53.987Z,1.90
2023-02-27T09:23:27.100Z,2.15
2023-02-27T09:25:54.036Z,2.08
2023-02-27T09:28:21.498Z,2.30
2023-02-27T09:30:48.329Z,2.13
2023-02-27T09:33:15.360Z,2.50
2023-02-27T09:35:42.487Z,2.10
2023-02-27T09:38:09.530Z,2.42
2023-02-27T09:40:43.423Z,2.40
2023-02-27T09:43:21.607Z,1.80
2023-02-27T09:45:54.954Z,1.65
2023-02-27T09:48:32.657Z,2.20
2023-02-27T09:51:00.323Z,2.38
2023-02-27T09:53:38.296Z,2.15
2023-02-27T09:56:13.664Z,2.55
2023-02-27T09:58:52.408Z,2.10
2023-02-27T10:01:37.177Z,1.75
2023-02-27T10:04:19.625Z,2.85
2023-02-27T10:06:56.340Z,2.40
2023-02-27T10:09:34.726Z,2.60
2023-02-27T10:12:42.446Z,2.67
2023-02-27T10:15:09.434Z,2.88
2023-02-27T10:17:43.631Z,3.17
2023-02-27T10:20:18.031Z,2.55
2023-02-27T10:22:47.576Z,2.63
2023-02-27T10:25:30.783Z,2.10
2023-02-27T10:28:09.018Z,2.40
2023-02-27T10:30:36.904Z,3.00
2023-02-27T10:33:19.136Z,2.63
2023-02-27T10:35:48.925Z,1.85
2023-02-27T10:38:34.787Z,2.40
2023-02-27T10:41:03.534Z,1.65
2023-02-27T10:43:30.549Z,1.70
2023-02-27T10:46:02.197Z,1.63
2023-02-27T10:48:31.538Z,1.52
2023-02-27T10:51:18.351Z,1.40
2023-02-27T10:53:45.206Z,1.27
2023-02-27T10:56:26.310Z,1.27
2023-02-27T10:59:39.699Z,1.52
2023-02-27T11:02:16.264Z,1.75
2023-02-27T11:04:54.198Z,1.90
2023-02-27T11:07:50.279Z,1.30
2023-02-27T11:10:30.857Z,1.77
2023-02-27T11:13:05.904Z,0.70
2023-02-27T11:15:38.083Z,0.90
2023-02-27T11:18:30.930Z,1.40
2023-02-27T11:21:12.008Z,1.52
2023-02-27T11:23:49.062Z,0.80
2023-02-27T11:26:21.537Z,1.17
2023-02-27T11:29:14.903Z,1.20
2023-02-27T11:32:13.058Z,1.20
2023-02-27T11:34:48.246Z,1.15
2023-02-27T11:37:34.963Z,0.90
2023-02-27T11:40:10.971Z,1.50
2023-02-27T11:43:01.967Z,1.42
2023-02-27T11:46:04.168Z,1.60
2023-02-27T11:48:32.190Z,1.30
2023-02-27T11:51:11.011Z,1.05
2023-02-27T11:54:16.475Z,1.08
2023-02-27T11:57:09.010Z,1.52
2023-02-27T11:59:52.930Z,1.00
2023-02-27T12:02:57.364Z,0.80
2023-02-27T12:05:33.108Z,1.48
2023-02-27T12:08:14.442Z,1.13
2023-02-27T12:11:13.875Z,0.85
2023-02-27T12:13:45.723Z,1.40
2023-02-27T12:16:21.523Z,1.50
2023-02-27T12:18:51.641Z,0.90
2023-02-27T12:21:49.990Z,0.88
2023-02-27T12:24:23.479Z,0.95
2023-02-27T12:26:57.990Z,0.82
2023-02-27T12:29:40.458Z,0.98
2023-02-27T12:32:07.383Z,0.73
2023-02-27T12:34:44.203Z,0.82
2023-02-27T12:37:25.259Z,1.00
2023-02-27T12:39:55.447Z,1.00
2023-02-27T12:45:30.604Z,0.73
2023-02-27T12:48:36.784Z,0.80
2023-02-27T12:51:25.888Z,3.15
2023-02-27T12:54:04.022Z,0.93
2023-02-27T12:56:51.272Z,1.25
2023-02-27T12:59:30.752Z,1.23
2023-02-27T13:02:21.150Z,1.08
2023-02-27T13:05:00.412Z,0.85
2023-02-27T13:07:49.263Z,0.95
2023-02-27T13:10:34.604Z,1.20
2023-02-27T13:13:19.897Z,1.20
2023-02-27T13:15:51.757Z,1.17
2023-02-27T13:18:37.416Z,1.13
2023-02-27T13:21:19.310Z,1.08
2023-02-27T13:24:31.573Z,1.20
2023-02-27T13:27:38.987Z,1.35
2023-02-27T13:30:22.978Z,2.22
2023-02-27T13:33:11.104Z,1.60
2023-02-27T13:36:03.746Z,1.50
2023-02-27T13:38:43.693Z,1.02
2023-02-27T13:41:28.004Z,1.60
2023-02-27T13:43:57.203Z,1.48
2023-02-27T13:46:33.673Z,0.93
2023-02-27T13:49:06.251Z,1.65
2023-02-27T13:51:35.733Z,0.77
2023-02-27T13:54:14.491Z,1.27
2023-02-27T13:56:58.660Z,0.70
2023-02-27T13:59:40.741Z,0.77
2023-02-27T14:02:10.575Z,1.10
2023-02-27T14:04:39.583Z,0.80
2023-02-27T14:07:16.258Z,1.35
2023-02-27T14:09:46.111Z,1.50
2023-02-27T14:12:43.930Z,1.30
2023-02-27T14:15:18.140Z,1.08
2023-02-27T14:17:47.006Z,0.88
2023-02-27T14:20:34.230Z,0.75
2023-02-27T14:23:20.666Z,1.20
2023-02-27T14:25:50.321Z,1.05
2023-02-27T14:28:30.477Z,1.00
2023-02-27T14:31:07.105Z,1.00
2023-02-27T14:33:42.265Z,1.00
2023-02-27T14:36:16.277Z,0.85
2023-02-27T14:38:43.333Z,1.00
2023-02-27T14:41:14.789Z,0.98
2023-02-27T14:46:23.732Z,1.33
2023-02-27T14:48:59.085Z,1.00
2023-02-27T14:51:27.169Z,1.15
2023-02-27T14:54:07.496Z,1.15
2023-02-27T14:56:34.743Z,0.82
2023-02-27T14:59:04.723Z,1.10
2023-02-27T15:01:36.050Z,0.90
2023-02-27T15:04:05.580Z,1.27
2023-02-27T15:06:45.365Z,1.05
2023-02-27T15:09:38.390Z,3.85
2023-02-27T15:12:05.597Z,1.05
2023-02-27T15:14:36.199Z,4.63
2023-02-27T15:17:03.715Z,0.98
2023-02-27T15:19:31.278Z,1.10
2023-02-27T15:22:05.237Z,0.80
2023-02-27T15:24:47.902Z,1.27
2023-02-27T15:27:20.148Z,1.20
2023-02-27T15:29:58.461Z,1.30
2023-02-27T15:32:30.514Z,1.55
2023-02-27T15:35:01.032Z,1.27
2023-02-27T15:37:33.371Z,1.52
2023-02-27T15:40:01.430Z,1.17
2023-02-27T15:42:32.256Z,1.00
2023-02-27T15:47:43.612Z,0.90
2023-02-27T15:50:21.614Z,0.60
2023-02-27T15:53:03.492Z,1.08
2023-02-27T15:55:37.692Z,1.35
2023-02-27T15:58:18.768Z,0.90
2023-02-27T16:00:46.642Z,0.90
2023-02-27T16:03:21.365Z,1.10
2023-02-27T16:05:52.459Z,1.23
2023-02-27T16:08:21.194Z,2.20
2023-02-27T16:10:48.854Z,1.35
2023-02-27T16:13:27.984Z,1.52
2023-02-27T16:16:03.129Z,2.17
2023-02-27T16:18:51.141Z,1.23
2023-02-27T16:21:20.564Z,1.10
2023-02-27T16:23:47.897Z,1.00
2023-02-27T16:26:21.024Z,1.75
2023-02-27T16:28:54.161Z,1.67
2023-02-27T16:31:29.265Z,1.40
2023-02-27T16:33:59.390Z,1.67
2023-02-27T16:36:29.533Z,1.90
2023-02-27T16:38:56.894Z,1.48
2023-02-27T16:41:25.054Z,1.60
2023-02-27T16:43:53.638Z,1.63
2023-02-27T16:46:21.044Z,1.92
2023-02-27T16:48:53.918Z,1.70
2023-02-27T16:51:24.077Z,1.02
2023-02-27T16:53:52.827Z,1.10
2023-02-27T16:56:32.164Z,1.60
2023-02-27T16:59:04.090Z,1.42
2023-02-27T17:01:32.995Z,1.42
2023-02-27T17:04:01.034Z,2.15
2023-02-27T17:06:28.582Z,1.60
2023-02-27T17:08:56.131Z,2.22
2023-02-27T17:11:23.355Z,1.92
2023-02-27T17:13:50.158Z,2.58
2023-02-27T17:16:17.679Z,1.67
2023-02-27T17:18:44.593Z,2.00
2023-02-27T17:21:11.595Z,2.40
2023-02-27T17:23:39.893Z,1.88
2023-02-27T17:26:07.387Z,1.70
2023-02-27T17:28:37.052Z,3.05
2023-02-27T17:31:23.149Z,4.18
2023-02-27T17:33:54.201Z,3.15
2023-02-27T17:36:23.724Z,3.65
2023-02-27T17:39:00.813Z,3.30
2023-02-27T17:41:28.910Z,3.03
2023-02-27T17:43:57.958Z,4.03
2023-02-27T17:46:27.007Z,5.30
2023-02-27T17:48:56.395Z,6.40
2023-02-27T17:51:23.464Z,5.78
2023-02-27T17:53:50.371Z,5.38
2023-02-27T17:56:17.429Z,5.20
2023-02-27T17:58:45.546Z,5.88
2023-02-27T18:01:22.850Z,4.53
2023-02-27T18:03:50.275Z,4.78
2023-02-27T18:06:17.841Z,4.68
2023-02-27T18:08:45.184Z,6.70
2023-02-27T18:11:14.329Z,7.30
2023-02-27T18:13:43.157Z,10.13
2023-02-27T18:16:11.549Z,11.52
2023-02-27T18:18:39.788Z,7.20
2023-02-27T18:21:13.235Z,8.15
2023-02-27T18:23:40.784Z,8.30
2023-02-27T18:26:12.494Z,13.55
2023-02-27T18:28:44.376Z,7.00
2023-02-27T18:31:23.194Z,4.03
2023-02-27T18:33:50.295Z,6.10
2023-02-27T18:36:18.565Z,7.97
2023-02-27T18:38:46.211Z,6.00
2023-02-27T18:41:13.588Z,5.63
2023-02-27T18:43:41.675Z,4.47
2023-02-27T18:46:10.112Z,5.28
2023-02-27T18:48:39.649Z,3.83
2023-02-27T18:51:12.317Z,3.25
2023-02-27T18:53:44.260Z,2.60
2023-02-27T18:56:12.665Z,3.13
2023-02-27T18:58:39.424Z,2.83
2023-02-27T19:01:07.366Z,2.67
2023-02-27T19:03:35.858Z,4.00
2023-02-27T19:06:02.992Z,3.42
2023-02-27T19:08:29.824Z,3.75
2023-02-27T19:10:57.516Z,4.65
2023-02-27T19:13:25.424Z,4.95
2023-02-27T19:15:53.065Z,5.15
2023-02-27T19:18:20.134Z,5.45
2023-02-27T19:20:46.954Z,4.13
2023-02-27T19:23:13.826Z,4.72
2023-02-27T19:25:42.048Z,6.68
2023-02-27T19:28:12.580Z,5.97
2023-02-27T19:30:39.954Z,5.85
2023-02-27T19:33:07.147Z,5.50
2023-02-27T19:35:34.054Z,7.45
2023-02-27T19:38:01.010Z,6.80
2023-02-27T19:40:30.216Z,6.25
2023-02-27T19:42:57.276Z,6.35
2023-02-27T19:45:24.099Z,6.05
2023-02-27T19:47:50.995Z,5.43
2023-02-27T19:50:18.048Z,6.43
2023-02-27T19:52:44.898Z,6.22
2023-02-27T19:55:12.989Z,5.45
2023-02-27T19:57:39.844Z,5.82
2023-02-27T20:00:08.571Z,6.47
2023-02-27T20:02:35.396Z,8.35
2023-02-27T20:05:03.180Z,8.43
2023-02-27T20:07:30.396Z,10.07
2023-02-27T20:10:06.799Z,8.65
2023-02-27T20:12:35.175Z,8.15
2023-02-27T20:15:08.691Z,7.30
2023-02-27T20:17:35.628Z,7.45
2023-02-27T20:20:04.945Z,7.57
2023-02-27T20:22:35.386Z,8.70
2023-02-27T20:25:02.167Z,12.52
2023-02-27T20:27:29.083Z,23.08
2023-02-27T20:29:57.496Z,80.18
2023-02-27T20:32:24.840Z,11.85
2023-02-27T20:34:53.643Z,10.88
2023-02-27T20:37:21.664Z,10.95
2023-02-27T20:39:49.232Z,11.10
2023-02-27T20:42:16.570Z,10.05
2023-02-27T20:44:43.562Z,8.40
2023-02-27T20:47:10.545Z,9.50
2023-02-27T20:49:38.267Z,10.10
2023-02-27T20:52:05.372Z,9.25
2023-02-27T20:54:33.944Z,8.90
2023-02-27T20:57:00.709Z,8.02
2023-02-27T20:59:27.552Z,7.30
2023-02-27T21:01:54.693Z,8.07
2023-02-27T21:04:25.838Z,7.93
2023-02-27T21:06:55.758Z,8.45
2023-02-27T21:09:22.576Z,8.23
2023-02-27T21:11:49.370Z,7.03
2023-02-27T21:14:16.332Z,5.80
2023-02-27T21:16:43.169Z,5.10
2023-02-27T21:19:11.007Z,5.85
2023-02-27T21:21:38.910Z,5.97
2023-02-27T21:24:06.159Z,6.30
2023-02-27T21:26:38.872Z,7.90
2023-02-27T21:29:12.498Z,8.50
2023-02-27T21:31:45.417Z,6.50
2023-02-27T21:34:24.850Z,6.40
2023-02-27T21:36:52.638Z,7.25
2023-02-27T21:39:22.214Z,7.28
2023-02-27T21:41:49.624Z,8.68
2023-02-27T21:44:18.957Z,9.45
2023-02-27T21:46:46.329Z,9.15
2023-02-27T21:49:24.787Z,8.68
2023-02-27T21:51:51.629Z,9.10
2023-02-27T21:54:19.435Z,9.77
2023-02-27T21:56:48.329Z,10.25
2023-02-27T21:59:16.271Z,8.88
2023-02-27T22:01:47.414Z,9.52
2023-02-27T22:04:15.550Z,9.82
2023-02-27T22:06:42.340Z,9.77
2023-02-27T22:09:09.177Z,10.65
2023-02-27T22:11:36.160Z,8.55
2023-02-27T22:14:05.867Z,9.07
2023-02-27T22:16:32.658Z,8.90
2023-02-27T22:18:59.615Z,9.05
2023-02-27T22:21:27.847Z,9.30
2023-02-27T22:23:57.959Z,7.97
2023-02-27T22:26:28.096Z,8.10
2023-02-27T22:28:58.652Z,9.35
2023-02-27T22:31:28.764Z,9.93
2023-02-27T22:33:59.106Z,9.75
2023-02-27T22:36:29.154Z,10.75
2023-02-27T22:38:56.221Z,10.90
2023-02-27T22:41:26.525Z,9.05
2023-02-27T22:43:53.609Z,8.80
2023-02-27T22:46:33.230Z,10.25
2023-02-27T22:49:03.065Z,11.93
2023-02-27T22:51:30.395Z,12.80
2023-02-27T22:54:00.059Z,15.45
2023-02-27T22:56:27.452Z,12.50
2023-02-27T22:58:54.308Z,13.30
2023-02-27T23:01:30.462Z,15.43
2023-02-27T23:04:00.853Z,14.82
2023-02-27T23:06:30.931Z,15.82
2023-02-27T23:08:58.642Z,15.23
2023-02-27T23:11:25.616Z,13.88
2023-02-27T23:13:52.423Z,12.02
2023-02-27T23:16:20.258Z,11.45
2023-02-27T23:18:50.226Z,10.40
2023-02-27T23:21:19.139Z,10.52
2023-02-27T23:23:46.267Z,9.55
2023-02-27T23:26:14.110Z,10.82
2023-02-27T23:28:41.485Z,10.23
2023-02-27T23:31:09.624Z,10.25
2023-02-27T23:33:36.907Z,9.40
2023-02-27T23:36:04.499Z,8.68
2023-02-27T23:38:31.472Z,7.55
2023-02-27T23:40:58.275Z,7.07
2023-02-27T23:43:24.986Z,6.85
2023-02-27T23:45:51.823Z,6.57
2023-02-27T23:48:21.831Z,8.30
2023-02-27T23:50:49.058Z,8.18
2023-02-27T23:53:15.906Z,7.10
2023-02-27T23:55:43.769Z,7.57
2023-02-27T23:58:11.208Z,7.45
